Si può fare!

LIPX 271115Z 06009KT 9999 BKN020 BKN070 19/04 Q1011

Approfitto di questa situazione climatica ancora favorevole per riprendere dopo il lunghissimo del lunedì di pasquetta. Devo sentire il buon Biffi al ritorno dal suo viaggio negli States, perché é una vera e propria miniera di informazioni sulla corretta alimentazione. Bene la FC.

One Comment

  1. Diciamo che rispolverando i vecchi fasti, facendo delle proiezioni con le prestazioni sui 30 Km hai buone chances per chiudere una maratona in poco più di 4 ore, che sarebbe un gran successo.

Lascia un commento

Il tuo indirizzo email non sarà pubblicato. I campi obbligatori sono contrassegnati *